Flugplatz Lauterbach

Für EDFT sind keine METAR/TAF Berichte vorhanden.
Es werden die Flugwettermeldungen vom Flugplatz Fritzlar Airport in 48 km Entfernung angezeigt.

Bericht für ETHF

vom 14.08. um 06:20 UTC

Wind 3 kt aus 150°

Sichtweite 10 km oder mehr

schwacher Regen

gering bewölkt in 100 ft

bedeckt in 9000 ft

Temperatur 19.0°C

Taupunkt 18.0°C

Luftfeuchtigkeit 94%

Luftdruck 1013 hPa

ETHF 140620Z 15003KT 9999 -RA FEW001 OVC090 19/18 Q1013 BLU

Prognose für ETHF

vom 14.08. um 04:20 UTC

Zwischen 05:00 UTC und 14:00 UTC

Wind 5 kt aus 180°

Sichtweite 10 km oder mehr

keine signifikanten Wettererscheinungen

gering bewölkt in 6000 ft

aufgebrochene Bewölkung in 10000 ft


Zwischen 13:00 UTC und 14:00 UTC mit einer Wahrscheinlichkeit von 30%

variable Windrichtung mit 15 kt in Böen 35 kt

Sichtweite 2000 m

Code: TSRA

aufgelockert bewölkt in 2000 ft

aufgebrochene Bewölkung in 4000 ft

TAF ETHF 140420Z 1405/1414 18005KT 9999 NSW FEW060 BKN100 PROB30 1413/1414 VRB15G35KT 2000 +TSRA SCT020 BKN040CB
Impressum